createdAt,value
2022-10-12T00:02:26.163Z,1.38
2022-10-12T00:04:53.265Z,1.15
2022-10-12T00:07:20.340Z,1.40
2022-10-12T00:09:47.399Z,0.90
2022-10-12T00:12:14.443Z,0.95
2022-10-12T00:14:41.525Z,1.08
2022-10-12T00:17:08.667Z,1.17
2022-10-12T00:19:35.747Z,1.23
2022-10-12T00:22:02.836Z,1.98
2022-10-12T00:24:30.024Z,1.98
2022-10-12T00:26:58.299Z,1.17
2022-10-12T00:29:25.420Z,1.00
2022-10-12T00:31:52.473Z,1.83
2022-10-12T00:34:19.518Z,1.45
2022-10-12T00:36:46.583Z,1.85
2022-10-12T00:39:13.705Z,1.13
2022-10-12T00:41:43.060Z,1.00
2022-10-12T00:44:38.134Z,0.60
2022-10-12T00:47:13.229Z,1.05
2022-10-12T00:49:40.501Z,1.23
2022-10-12T00:52:11.424Z,1.10
2022-10-12T00:54:43.782Z,1.30
2022-10-12T00:57:13.399Z,0.90
2022-10-12T01:02:12.680Z,0.98
2022-10-12T01:04:40.428Z,1.60
2022-10-12T01:07:07.533Z,1.63
2022-10-12T01:09:34.699Z,17.60
2022-10-12T01:12:05.101Z,4.95
2022-10-12T01:14:32.176Z,3.97
2022-10-12T01:17:14.262Z,1.50
2022-10-12T01:20:10.247Z,1.63
2022-10-12T01:22:48.277Z,1.02
2022-10-12T01:25:25.288Z,2.60
2022-10-12T01:27:55.456Z,1.45
2022-10-12T01:30:22.603Z,1.10
2022-10-12T01:33:34.266Z,2.03
2022-10-12T01:36:15.473Z,1.65
2022-10-12T01:39:11.709Z,1.52
2022-10-12T01:41:49.655Z,1.30
2022-10-12T01:44:25.255Z,3.00
2022-10-12T01:46:54.393Z,2.92
2022-10-12T01:49:29.129Z,1.08
2022-10-12T01:52:07.471Z,1.25
2022-10-12T01:55:16.884Z,1.10
2022-10-12T01:58:00.748Z,1.38
2022-10-12T02:00:28.886Z,1.20
2022-10-12T02:03:21.988Z,1.38
2022-10-12T02:06:01.253Z,1.30
2022-10-12T02:08:40.817Z,1.45
2022-10-12T02:13:48.192Z,1.52
2022-10-12T02:16:19.837Z,1.48
2022-10-12T02:18:51.855Z,1.50
2022-10-12T02:21:22.395Z,1.50
2022-10-12T02:23:52.497Z,2.35
2022-10-12T02:26:21.379Z,1.33
2022-10-12T02:28:49.685Z,1.50
2022-10-12T02:31:39.433Z,0.88
2022-10-12T02:34:21.259Z,1.60
2022-10-12T02:37:23.557Z,2.08
2022-10-12T02:39:54.422Z,1.30
2022-10-12T02:42:46.590Z,1.20
2022-10-12T02:45:22.752Z,2.67
2022-10-12T02:47:53.733Z,16.17
2022-10-12T02:50:22.902Z,4.85
2022-10-12T02:52:51.287Z,3.25
2022-10-12T02:55:18.442Z,2.70
2022-10-12T02:57:45.591Z,2.60
2022-10-12T03:00:13.143Z,1.90
2022-10-12T03:02:40.199Z,1.65
2022-10-12T03:05:07.590Z,1.98
2022-10-12T03:07:34.712Z,1.77
2022-10-12T03:10:01.855Z,1.60
2022-10-12T03:12:28.903Z,1.63
2022-10-12T03:14:55.953Z,1.45
2022-10-12T03:17:23.079Z,1.67
2022-10-12T03:19:50.131Z,1.70
2022-10-12T03:22:17.153Z,1.70
2022-10-12T03:24:44.237Z,2.08
2022-10-12T03:27:11.268Z,1.48
2022-10-12T03:29:38.408Z,2.28
2022-10-12T03:32:05.455Z,1.73
2022-10-12T03:34:32.516Z,1.83
2022-10-12T03:36:59.554Z,1.80
2022-10-12T03:39:26.726Z,1.70
2022-10-12T03:41:56.129Z,1.75
2022-10-12T03:44:23.259Z,1.50
2022-10-12T03:46:50.404Z,1.50
2022-10-12T03:49:18.515Z,1.48
2022-10-12T03:51:45.545Z,1.65
2022-10-12T03:54:12.705Z,1.77
2022-10-12T03:56:39.877Z,1.70
2022-10-12T03:59:06.987Z,1.27
2022-10-12T04:01:34.097Z,4.78
2022-10-12T04:04:01.245Z,2.65
2022-10-12T04:06:28.314Z,4.80
2022-10-12T04:08:55.432Z,2.78
2022-10-12T04:11:22.947Z,2.95
2022-10-12T04:13:50.142Z,2.55
2022-10-12T04:16:17.242Z,2.60
2022-10-12T04:18:44.530Z,1.75
2022-10-12T04:21:14.782Z,2.20
2022-10-12T04:23:42.505Z,2.42
2022-10-12T04:26:09.805Z,1.90
2022-10-12T04:28:36.933Z,1.55
2022-10-12T04:31:04.022Z,2.10
2022-10-12T04:33:31.545Z,1.88
2022-10-12T04:36:00.890Z,1.90
2022-10-12T04:38:27.951Z,1.85
2022-10-12T04:40:55.058Z,2.45
2022-10-12T04:43:22.194Z,2.05
2022-10-12T04:45:59.846Z,1.55
2022-10-12T04:48:27.166Z,2.95
2022-10-12T04:50:54.226Z,2.13
2022-10-12T04:53:21.316Z,2.03
2022-10-12T04:55:48.479Z,2.42
2022-10-12T04:58:15.604Z,2.25
2022-10-12T05:00:42.764Z,2.60
2022-10-12T05:03:09.839Z,2.33
2022-10-12T05:05:36.904Z,2.10
2022-10-12T05:08:04.975Z,2.08
2022-10-12T05:10:32.084Z,1.63
2022-10-12T05:12:59.216Z,2.00
2022-10-12T05:15:26.274Z,2.65
2022-10-12T05:17:53.524Z,2.35
2022-10-12T05:20:20.622Z,2.40
2022-10-12T05:22:47.712Z,1.77
2022-10-12T05:25:14.846Z,1.65
2022-10-12T05:27:42.450Z,2.20
2022-10-12T05:30:09.981Z,2.30
2022-10-12T05:32:37.861Z,2.33
2022-10-12T05:35:05.563Z,2.72
2022-10-12T05:37:33.615Z,4.03
2022-10-12T05:40:00.657Z,2.13
2022-10-12T05:42:27.718Z,2.72
2022-10-12T05:44:54.768Z,2.05
2022-10-12T05:47:21.894Z,2.50
2022-10-12T05:49:48.988Z,2.90
2022-10-12T05:52:16.123Z,3.25
2022-10-12T05:54:43.204Z,2.13
2022-10-12T05:57:10.312Z,2.22
2022-10-12T05:59:37.354Z,2.53
2022-10-12T06:02:04.467Z,2.35
2022-10-12T06:04:31.612Z,2.72
2022-10-12T06:06:58.722Z,2.60
2022-10-12T06:09:26.041Z,3.78
2022-10-12T06:11:53.185Z,5.10
2022-10-12T06:14:20.225Z,4.63
2022-10-12T06:16:51.090Z,4.15
2022-10-12T06:19:21.735Z,5.45
2022-10-12T06:21:48.796Z,6.28
2022-10-12T06:24:15.923Z,4.55
2022-10-12T06:26:42.969Z,8.02
2022-10-12T06:29:10.037Z,5.78
2022-10-12T06:31:38.402Z,7.03
2022-10-12T06:34:06.349Z,6.63
2022-10-12T06:36:33.436Z,5.80
2022-10-12T06:39:00.498Z,9.02
2022-10-12T06:41:27.578Z,8.43
2022-10-12T06:43:54.660Z,5.65
2022-10-12T06:46:21.730Z,6.90
2022-10-12T06:48:48.828Z,5.93
2022-10-12T06:51:15.929Z,5.55
2022-10-12T06:53:43.084Z,5.75
2022-10-12T06:56:10.942Z,6.00
2022-10-12T06:58:38.568Z,6.20
2022-10-12T07:01:07.714Z,6.07
2022-10-12T07:03:34.932Z,6.43
2022-10-12T07:06:07.469Z,6.85
2022-10-12T07:08:34.795Z,7.68
2022-10-12T07:11:07.114Z,6.57
2022-10-12T07:13:34.670Z,7.13
2022-10-12T07:16:02.051Z,6.07
2022-10-12T07:18:29.161Z,6.85
2022-10-12T07:20:58.468Z,6.53
2022-10-12T07:23:29.861Z,6.55
2022-10-12T07:25:56.974Z,6.28
2022-10-12T07:28:24.227Z,5.88
2022-10-12T07:30:51.403Z,6.35
2022-10-12T07:33:18.496Z,8.02
2022-10-12T07:36:12.925Z,7.60
2022-10-12T07:38:44.822Z,7.72
2022-10-12T07:41:12.772Z,7.45
2022-10-12T07:43:39.886Z,6.90
2022-10-12T07:46:07.443Z,6.95
2022-10-12T07:48:34.575Z,6.03
2022-10-12T07:51:10.007Z,6.28
2022-10-12T07:53:38.628Z,6.55
2022-10-12T07:56:14.780Z,6.00
2022-10-12T07:58:49.715Z,7.38
2022-10-12T08:01:18.341Z,7.30
2022-10-12T08:03:45.437Z,8.70
2022-10-12T08:06:16.650Z,7.90
2022-10-12T08:08:44.050Z,7.55
2022-10-12T08:11:12.358Z,7.10
2022-10-12T08:13:40.459Z,6.93
2022-10-12T08:16:12.066Z,6.78
2022-10-12T08:18:39.403Z,8.82
2022-10-12T08:21:08.511Z,9.65
2022-10-12T08:23:37.045Z,7.95
2022-10-12T08:26:05.121Z,8.57
2022-10-12T08:28:32.952Z,8.60
2022-10-12T08:31:00.188Z,7.43
2022-10-12T08:33:29.171Z,7.53
2022-10-12T08:35:56.222Z,7.88
2022-10-12T08:38:23.329Z,8.65
2022-10-12T08:40:56.525Z,8.13
2022-10-12T08:43:32.658Z,6.28
2022-10-12T08:46:02.400Z,7.20
2022-10-12T08:48:59.441Z,7.03
2022-10-12T08:51:31.343Z,7.18
2022-10-12T08:54:08.185Z,7.82
2022-10-12T08:56:35.829Z,7.00
2022-10-12T08:59:03.573Z,6.93
2022-10-12T09:01:38.368Z,7.80
2022-10-12T09:04:31.263Z,6.30
2022-10-12T09:07:06.190Z,6.90
2022-10-12T09:09:33.245Z,6.40
2022-10-12T09:12:18.624Z,8.80
2022-10-12T09:14:47.747Z,5.70
2022-10-12T09:17:26.155Z,5.90
2022-10-12T09:20:01.772Z,5.97
2022-10-12T09:22:30.365Z,5.68
2022-10-12T09:24:59.070Z,6.83
2022-10-12T09:27:31.436Z,5.93
2022-10-12T09:30:02.783Z,4.80
2022-10-12T09:33:00.141Z,4.90
2022-10-12T09:35:27.428Z,6.13
2022-10-12T09:37:54.887Z,6.15
2022-10-12T09:40:31.087Z,6.43
2022-10-12T09:43:00.715Z,5.53
2022-10-12T09:45:30.825Z,5.65
2022-10-12T09:48:23.979Z,6.47
2022-10-12T09:50:51.033Z,7.90
2022-10-12T09:53:24.698Z,8.52
2022-10-12T09:55:54.087Z,8.32
2022-10-12T09:58:21.778Z,7.78
2022-10-12T10:01:34.950Z,7.95
2022-10-12T10:04:15.744Z,8.30
2022-10-12T10:06:46.349Z,7.22
2022-10-12T10:09:33.015Z,7.03
2022-10-12T10:12:24.145Z,8.02
2022-10-12T10:14:53.623Z,10.98
2022-10-12T10:19:53.484Z,10.85
2022-10-12T10:22:22.388Z,9.50
2022-10-12T10:25:00.204Z,7.43
2022-10-12T10:27:37.183Z,9.23
2022-10-12T10:30:30.104Z,9.48
2022-10-12T10:33:18.315Z,12.00
2022-10-12T10:36:25.000Z,4.85
2022-10-12T10:38:59.955Z,3.65
2022-10-12T10:41:33.154Z,3.90
2022-10-12T10:44:00.242Z,5.60
2022-10-12T10:46:31.687Z,3.95
2022-10-12T10:49:07.146Z,4.20
2022-10-12T10:51:40.262Z,4.55
2022-10-12T10:54:27.493Z,5.05
2022-10-12T10:57:02.232Z,4.85
2022-10-12T10:59:39.238Z,4.35
2022-10-12T11:02:19.652Z,4.13
2022-10-12T11:04:51.877Z,5.05
2022-10-12T11:07:48.273Z,5.00
2022-10-12T11:10:29.048Z,5.05
2022-10-12T11:13:12.360Z,3.13
2022-10-12T11:15:52.846Z,4.50
2022-10-12T11:18:42.335Z,5.05
2022-10-12T11:21:20.818Z,4.47
2022-10-12T11:23:57.084Z,3.57
2022-10-12T11:26:24.183Z,3.40
2022-10-12T11:28:54.866Z,3.28
2022-10-12T11:31:26.545Z,4.00
2022-10-12T11:33:58.208Z,3.80
2022-10-12T11:36:29.689Z,4.88
2022-10-12T11:39:05.867Z,3.92
2022-10-12T11:42:16.791Z,5.85
2022-10-12T11:44:44.398Z,6.18
2022-10-12T11:47:32.512Z,5.38
2022-10-12T11:50:27.424Z,5.30
2022-10-12T11:52:57.307Z,5.07
2022-10-12T11:55:35.091Z,4.80
2022-10-12T11:58:13.697Z,5.80
2022-10-12T12:01:15.717Z,5.22
2022-10-12T12:03:45.852Z,5.53
2022-10-12T12:06:31.026Z,4.70
2022-10-12T12:09:05.412Z,5.07
2022-10-12T12:11:34.618Z,5.07
2022-10-12T12:14:26.552Z,5.80
2022-10-12T12:17:15.625Z,5.63
2022-10-12T12:19:47.823Z,5.13
2022-10-12T12:22:31.230Z,5.50
2022-10-12T12:25:07.928Z,5.95
2022-10-12T12:27:36.963Z,5.10
2022-10-12T12:30:32.364Z,6.28
2022-10-12T12:33:27.209Z,5.13
2022-10-12T12:35:58.881Z,6.00
2022-10-12T12:38:31.956Z,5.10
2022-10-12T12:41:06.974Z,5.80
2022-10-12T12:43:34.015Z,4.43
2022-10-12T12:46:02.286Z,5.70
2022-10-12T12:48:41.525Z,4.38
2022-10-12T12:51:13.399Z,5.20
2022-10-12T12:53:48.652Z,5.18
2022-10-12T12:56:45.059Z,5.47
2022-10-12T12:59:28.845Z,5.20
2022-10-12T13:02:14.411Z,5.15
2022-10-12T13:05:00.207Z,5.75
2022-10-12T13:07:56.603Z,5.28
2022-10-12T13:10:59.721Z,5.63
2022-10-12T13:13:55.682Z,5.18
2022-10-12T13:19:44.374Z,6.38
2022-10-12T13:22:26.032Z,8.88
2022-10-12T13:24:59.195Z,5.45
2022-10-12T13:27:33.973Z,5.90
2022-10-12T13:30:06.223Z,6.00
2022-10-12T13:32:51.135Z,5.47
2022-10-12T13:35:43.383Z,5.05
2022-10-12T13:38:27.885Z,5.28
2022-10-12T13:41:06.335Z,5.28
2022-10-12T13:44:02.622Z,4.65
2022-10-12T13:46:43.514Z,5.32
2022-10-12T13:49:24.966Z,5.70
2022-10-12T13:51:55.845Z,5.05
2022-10-12T13:54:37.515Z,4.93
2022-10-12T13:57:35.792Z,5.10
2022-10-12T14:00:27.653Z,4.47
2022-10-12T14:03:00.424Z,4.45
2022-10-12T14:05:32.112Z,4.18
2022-10-12T14:08:13.056Z,4.53
2022-10-12T14:10:42.017Z,4.35
2022-10-12T14:13:15.548Z,5.60
2022-10-12T14:15:42.870Z,4.70
2022-10-12T14:18:31.542Z,5.25
2022-10-12T14:21:13.149Z,4.90
2022-10-12T14:23:46.938Z,4.68
2022-10-12T14:26:39.661Z,4.30
2022-10-12T14:29:25.437Z,4.68
2022-10-12T14:31:55.714Z,5.05
2022-10-12T14:34:28.437Z,4.13
2022-10-12T14:37:14.275Z,4.03
2022-10-12T14:39:45.937Z,5.32
2022-10-12T14:42:29.505Z,4.85
2022-10-12T14:44:56.662Z,4.93
2022-10-12T14:47:37.533Z,5.80
2022-10-12T14:50:08.368Z,5.00
2022-10-12T14:52:38.171Z,4.55
2022-10-12T14:55:06.521Z,5.15
2022-10-12T14:57:33.676Z,5.38
2022-10-12T15:00:00.899Z,4.78
2022-10-12T15:02:30.732Z,4.90
2022-10-12T15:04:59.258Z,5.57
2022-10-12T15:07:33.688Z,6.17
2022-10-12T15:10:01.267Z,6.18
2022-10-12T15:12:31.811Z,6.95
2022-10-12T15:15:01.212Z,6.22
2022-10-12T15:19:55.799Z,4.93
2022-10-12T15:22:26.073Z,6.45
2022-10-12T15:24:54.450Z,5.63
2022-10-12T15:27:21.939Z,6.90
2022-10-12T15:29:49.050Z,5.90
2022-10-12T15:32:18.477Z,5.90
2022-10-12T15:37:12.451Z,6.15
2022-10-12T15:39:39.645Z,6.80
2022-10-12T15:42:06.704Z,7.53
2022-10-12T15:44:40.818Z,6.18
2022-10-12T15:47:09.902Z,8.73
2022-10-12T15:49:37.053Z,9.57
2022-10-12T15:52:05.921Z,9.18
2022-10-12T15:54:33.216Z,10.15
2022-10-12T15:57:00.288Z,9.30
2022-10-12T15:59:27.575Z,9.57
2022-10-12T16:01:54.693Z,8.00
2022-10-12T16:04:22.447Z,6.78
2022-10-12T16:06:49.549Z,7.60
2022-10-12T16:09:16.597Z,6.32
2022-10-12T16:11:43.692Z,6.40
2022-10-12T16:14:14.307Z,6.15
2022-10-12T16:16:41.391Z,5.53
2022-10-12T16:19:08.458Z,5.93
2022-10-12T16:21:35.530Z,5.40
2022-10-12T16:24:02.621Z,5.18
2022-10-12T16:26:29.693Z,5.07
2022-10-12T16:28:56.782Z,6.18
2022-10-12T16:31:23.966Z,6.00
2022-10-12T16:33:51.197Z,6.53
2022-10-12T16:36:18.292Z,5.80
2022-10-12T16:38:45.546Z,7.38
2022-10-12T16:41:15.197Z,6.15
2022-10-12T16:43:43.700Z,5.80
2022-10-12T16:46:10.975Z,5.93
2022-10-12T16:48:38.343Z,5.63
2022-10-12T16:51:10.660Z,6.32
2022-10-12T16:53:37.841Z,21.17
2022-10-12T16:56:05.134Z,19.52
2022-10-12T16:58:32.938Z,11.77
2022-10-12T17:01:11.733Z,13.20
2022-10-12T17:03:38.994Z,15.77
2022-10-12T17:06:06.460Z,13.77
2022-10-12T17:08:35.482Z,9.70
2022-10-12T17:11:11.440Z,7.70
2022-10-12T17:13:39.746Z,9.07
2022-10-12T17:16:41.129Z,8.80
2022-10-12T17:19:08.366Z,10.45
2022-10-12T17:21:37.676Z,9.75
2022-10-12T17:24:05.068Z,13.50
2022-10-12T17:26:32.150Z,13.73
2022-10-12T17:28:59.262Z,10.50
2022-10-12T17:31:26.396Z,22.23
2022-10-12T17:33:54.175Z,25.70
2022-10-12T17:36:24.497Z,13.02
2022-10-12T17:38:57.901Z,9.60
2022-10-12T17:41:27.174Z,10.57
2022-10-12T17:43:54.901Z,8.93
2022-10-12T17:46:22.824Z,8.90
2022-10-12T17:48:50.510Z,8.98
2022-10-12T17:51:18.183Z,6.93
2022-10-12T17:53:45.319Z,7.72
2022-10-12T17:56:14.126Z,7.97
2022-10-12T17:58:41.375Z,7.03
2022-10-12T18:01:15.306Z,6.68
2022-10-12T18:03:44.452Z,7.38
2022-10-12T18:06:18.255Z,29.10
2022-10-12T18:08:45.679Z,18.05
2022-10-12T18:11:13.664Z,14.73
2022-10-12T18:13:44.341Z,15.88
2022-10-12T18:16:11.733Z,7.00
2022-10-12T18:18:39.553Z,8.90
2022-10-12T18:21:08.214Z,12.30
2022-10-12T18:23:35.293Z,22.23
2022-10-12T18:26:04.606Z,18.52
2022-10-12T18:28:32.133Z,17.02
2022-10-12T18:30:59.339Z,29.40
2022-10-12T18:33:26.551Z,81.40
2022-10-12T18:35:54.223Z,41.88
2022-10-12T18:38:21.333Z,49.97
2022-10-12T18:40:48.469Z,21.02
2022-10-12T18:43:15.753Z,11.90
2022-10-12T18:45:46.027Z,22.08
2022-10-12T18:48:13.490Z,19.17
2022-10-12T18:50:40.585Z,26.65
2022-10-12T18:53:07.741Z,21.83
2022-10-12T18:55:38.237Z,13.40
2022-10-12T18:58:05.694Z,18.00
2022-10-12T19:00:32.994Z,17.35
2022-10-12T19:03:00.098Z,9.90
2022-10-12T19:05:27.181Z,11.05
2022-10-12T19:07:54.279Z,70.00
2022-10-12T19:10:21.341Z,47.85
2022-10-12T19:12:48.396Z,30.80
2022-10-12T19:15:15.517Z,15.68
2022-10-12T19:17:42.599Z,14.30
2022-10-12T19:20:09.877Z,12.95
2022-10-12T19:22:37.087Z,11.10
2022-10-12T19:25:04.429Z,14.40
2022-10-12T19:27:31.569Z,14.32
2022-10-12T19:29:58.613Z,10.25
2022-10-12T19:32:25.687Z,11.70
2022-10-12T19:34:52.921Z,14.25
2022-10-12T19:37:20.029Z,11.95
2022-10-12T19:39:48.791Z,14.65
2022-10-12T19:42:16.194Z,11.68
2022-10-12T19:44:43.492Z,22.55
2022-10-12T19:47:10.553Z,20.95
2022-10-12T19:49:40.877Z,23.95
2022-10-12T19:52:10.316Z,15.98
2022-10-12T19:54:37.362Z,10.27
2022-10-12T19:57:04.483Z,11.88
2022-10-12T19:59:31.621Z,10.57
2022-10-12T20:01:58.704Z,17.63
2022-10-12T20:04:25.734Z,19.13
2022-10-12T20:06:52.851Z,28.98
2022-10-12T20:09:19.919Z,59.67
2022-10-12T20:11:47.051Z,29.00
2022-10-12T20:14:14.102Z,29.83
2022-10-12T20:16:41.230Z,32.80
2022-10-12T20:19:08.389Z,22.92
2022-10-12T20:21:36.569Z,19.77
2022-10-12T20:24:04.089Z,20.70
2022-10-12T20:26:31.419Z,16.67
2022-10-12T20:28:58.459Z,16.10
2022-10-12T20:31:27.485Z,13.25
2022-10-12T20:33:56.002Z,11.43
2022-10-12T20:36:26.683Z,11.20
2022-10-12T20:38:54.400Z,12.15
2022-10-12T20:41:23.154Z,10.75
2022-10-12T20:43:54.081Z,11.47
2022-10-12T20:46:21.148Z,14.90
2022-10-12T20:48:48.189Z,8.82
2022-10-12T20:51:21.694Z,11.57
2022-10-12T20:53:50.745Z,12.45
2022-10-12T20:56:17.944Z,10.25
2022-10-12T20:58:45.149Z,10.73
2022-10-12T21:01:14.607Z,10.07
2022-10-12T21:03:42.375Z,8.27
2022-10-12T21:06:12.257Z,7.53
2022-10-12T21:08:40.753Z,8.88
2022-10-12T21:11:09.728Z,11.50
2022-10-12T21:13:41.232Z,9.38
2022-10-12T21:16:09.515Z,8.52
2022-10-12T21:18:38.377Z,9.23
2022-10-12T21:21:11.356Z,9.23
2022-10-12T21:23:42.496Z,8.75
2022-10-12T21:26:18.128Z,10.38
2022-10-12T21:28:45.935Z,8.32
2022-10-12T21:31:14.428Z,8.00
2022-10-12T21:33:41.793Z,8.75
2022-10-12T21:36:20.189Z,11.30
2022-10-12T21:38:47.702Z,7.95
2022-10-12T21:41:16.304Z,7.68
2022-10-12T21:43:43.696Z,8.73
2022-10-12T21:46:13.156Z,7.07
2022-10-12T21:51:09.070Z,7.85
2022-10-12T21:53:37.344Z,6.13
2022-10-12T21:56:22.320Z,9.18
2022-10-12T21:58:50.985Z,9.60
2022-10-12T22:01:24.530Z,7.70
2022-10-12T22:03:56.325Z,7.53
2022-10-12T22:06:25.425Z,7.85
2022-10-12T22:08:58.003Z,7.47
2022-10-12T22:11:27.141Z,8.75
2022-10-12T22:13:59.354Z,8.02
2022-10-12T22:16:29.023Z,6.45
2022-10-12T22:18:59.712Z,8.82
2022-10-12T22:21:33.283Z,7.38
2022-10-12T22:24:00.811Z,6.88
2022-10-12T22:26:28.231Z,8.57
2022-10-12T22:28:56.038Z,7.70
2022-10-12T22:31:24.660Z,9.35
2022-10-12T22:33:53.293Z,8.57
2022-10-12T22:36:20.357Z,7.30
2022-10-12T22:38:47.486Z,7.65
2022-10-12T22:41:17.189Z,6.30
2022-10-12T22:43:52.360Z,6.68
2022-10-12T22:46:21.101Z,6.50
2022-10-12T22:48:48.509Z,10.60
2022-10-12T22:51:18.947Z,10.07
2022-10-12T22:53:46.102Z,9.27
2022-10-12T22:56:18.409Z,9.48
2022-10-12T22:58:46.603Z,8.90
2022-10-12T23:01:16.257Z,10.80
2022-10-12T23:03:43.519Z,11.05
2022-10-12T23:06:12.761Z,9.38
2022-10-12T23:08:40.314Z,8.33
2022-10-12T23:11:12.745Z,10.75
2022-10-12T23:13:40.998Z,7.15
2022-10-12T23:16:10.962Z,7.93
2022-10-12T23:18:39.152Z,6.28
2022-10-12T23:21:08.864Z,8.90
2022-10-12T23:23:37.272Z,7.63
2022-10-12T23:26:07.476Z,8.55
2022-10-12T23:28:35.045Z,10.65
2022-10-12T23:31:06.435Z,8.73
2022-10-12T23:33:34.203Z,8.23
2022-10-12T23:36:07.223Z,7.90
2022-10-12T23:38:36.311Z,9.52
2022-10-12T23:41:04.596Z,9.95
2022-10-12T23:43:32.310Z,8.02
2022-10-12T23:46:02.916Z,11.02
2022-10-12T23:48:30.127Z,8.75
2022-10-12T23:50:57.183Z,9.02
2022-10-12T23:53:25.149Z,9.27
2022-10-12T23:55:53.122Z,8.60
2022-10-12T23:58:20.442Z,8.52
